首页
METAR-TAF:

METAR-TAF

机场 :

巴斯蒂亚, 法国

纬度: 42-33N, 经度: 009-29E, 海拔: 8米

当前天气观测

该预报发布于30分钟前的15:00 UTC
风速5节,风向东南,在南转南东之间变化
温度 29°C
湿度 40%
气压 1014 hPa
能见度10公里或以上
1500米以下无云,无积雨云

METAR: LFKB 181500Z AUTO 13005KT 090V160 CAVOK 29/14 Q1014 NOSIG

时间: 17:30 (15:30 UTC)

预报

该预报发布于1小时和30分钟前的14:00 UTC
预报有效从18日的 15点(UTC)到 19日的 15点(UTC)
风速6节,风向东转东南
能见度10公里或以上
1500米以下无云,无积雨云
成为
从 18日的 19点(UTC)到 18日的 21点(UTC)
风速4节,风向西转西南
成为
从 19日的 07点(UTC)到 19日的 09点(UTC)
风速10节,风向东转东南

TAF: LFKB 181400Z 1815/1915 11006KT CAVOK TX28/1912Z TN18/1903Z BECMG 1819/1821 24004KT BECMG 1907/1909 11010KT

超过4000个机场的气象观测和天气预报(METAR&TAF报告)。

可查询的气象台以黄色和红色小点在地图上表示。

将鼠标移到小点上方,可查看气象台名称。

然后点击查看天气观测和预报。

如需切换地图:点击带黑十字的绿色按钮放大地图;点击带横线的绿色按钮缩小地图;或者点击绿色箭头查看邻近地区的地图。


METAR-TAF: